sensor_id;sensor_type;location;lat;lon;timestamp;pressure;altitude;pressure_sealevel;temperature;humidity
6347;BME280;3206;42.666;23.600;2023-02-27T00:00:07;94338.06;;;11.56;100.00
6347;BME280;3206;42.666;23.600;2023-02-27T00:02:39;94338.53;;;11.61;100.00
6347;BME280;3206;42.666;23.600;2023-02-27T00:05:06;94345.72;;;11.57;100.00
6347;BME280;3206;42.666;23.600;2023-02-27T00:07:33;94331.31;;;11.65;100.00
6347;BME280;3206;42.666;23.600;2023-02-27T00:09:59;94321.94;;;11.52;100.00
6347;BME280;3206;42.666;23.600;2023-02-27T00:12:26;94324.97;;;11.51;100.00
6347;BME280;3206;42.666;23.600;2023-02-27T00:14:52;94315.97;;;11.33;100.00
6347;BME280;3206;42.666;23.600;2023-02-27T00:17:20;94313.13;;;11.52;100.00
6347;BME280;3206;42.666;23.600;2023-02-27T00:19:50;94301.59;;;11.44;100.00
6347;BME280;3206;42.666;23.600;2023-02-27T00:22:16;94310.75;;;11.43;100.00
6347;BME280;3206;42.666;23.600;2023-02-27T00:24:43;94327.97;;;11.46;100.00
6347;BME280;3206;42.666;23.600;2023-02-27T00:27:09;94326.03;;;11.43;100.00
6347;BME280;3206;42.666;23.600;2023-02-27T00:29:36;94330.78;;;11.27;100.00
6347;BME280;3206;42.666;23.600;2023-02-27T00:32:03;94336.94;;;11.31;100.00
6347;BME280;3206;42.666;23.600;2023-02-27T00:34:31;94336.88;;;11.27;100.00
6347;BME280;3206;42.666;23.600;2023-02-27T00:36:57;94337.66;;;11.28;100.00
6347;BME280;3206;42.666;23.600;2023-02-27T00:39:24;94336.00;;;11.20;100.00
6347;BME280;3206;42.666;23.600;2023-02-27T00:41:51;94333.50;;;11.30;100.00
6347;BME280;3206;42.666;23.600;2023-02-27T00:44:17;94341.53;;;11.30;100.00
6347;BME280;3206;42.666;23.600;2023-02-27T00:46:44;94332.63;;;11.23;100.00
6347;BME280;3206;42.666;23.600;2023-02-27T00:49:11;94332.06;;;11.11;100.00
6347;BME280;3206;42.666;23.600;2023-02-27T00:51:39;94342.50;;;10.93;100.00
6347;BME280;3206;42.666;23.600;2023-02-27T00:54:05;94342.44;;;10.90;100.00
6347;BME280;3206;42.666;23.600;2023-02-27T00:56:33;94342.22;;;10.76;100.00
6347;BME280;3206;42.666;23.600;2023-02-27T00:59:01;94344.09;;;10.27;100.00
6347;BME280;3206;42.666;23.600;2023-02-27T01:01:27;94340.47;;;10.61;100.00
6347;BME280;3206;42.666;23.600;2023-02-27T01:03:54;94328.41;;;10.70;100.00
6347;BME280;3206;42.666;23.600;2023-02-27T01:06:21;94308.66;;;10.75;100.00
6347;BME280;3206;42.666;23.600;2023-02-27T01:08:49;94321.75;;;10.83;100.00
6347;BME280;3206;42.666;23.600;2023-02-27T01:11:15;94320.06;;;10.72;100.00
6347;BME280;3206;42.666;23.600;2023-02-27T01:13:42;94320.28;;;10.86;100.00
6347;BME280;3206;42.666;23.600;2023-02-27T01:16:10;94327.75;;;10.77;100.00
6347;BME280;3206;42.666;23.600;2023-02-27T01:18:37;94325.00;;;10.96;100.00
6347;BME280;3206;42.666;23.600;2023-02-27T01:21:04;94277.88;;;10.84;100.00
6347;BME280;3206;42.666;23.600;2023-02-27T01:23:31;94314.19;;;11.15;100.00
6347;BME280;3206;42.666;23.600;2023-02-27T01:25:59;94319.41;;;11.33;100.00
6347;BME280;3206;42.666;23.600;2023-02-27T01:28:26;94309.81;;;11.29;100.00
6347;BME280;3206;42.666;23.600;2023-02-27T01:30:52;94316.88;;;11.44;100.00
6347;BME280;3206;42.666;23.600;2023-02-27T01:33:19;94325.66;;;11.44;100.00
6347;BME280;3206;42.666;23.600;2023-02-27T01:35:46;94324.97;;;11.51;100.00
6347;BME280;3206;42.666;23.600;2023-02-27T01:38:13;94322.69;;;11.53;100.00
6347;BME280;3206;42.666;23.600;2023-02-27T01:40:40;94331.97;;;11.59;100.00
6347;BME280;3206;42.666;23.600;2023-02-27T01:43:14;94325.94;;;11.65;100.00
6347;BME280;3206;42.666;23.600;2023-02-27T01:45:41;94342.88;;;11.76;100.00
6347;BME280;3206;42.666;23.600;2023-02-27T01:48:13;94348.38;;;11.57;100.00
6347;BME280;3206;42.666;23.600;2023-02-27T01:50:45;94347.25;;;11.58;100.00
6347;BME280;3206;42.666;23.600;2023-02-27T01:53:14;94347.75;;;11.67;100.00
6347;BME280;3206;42.666;23.600;2023-02-27T01:55:41;94349.13;;;11.87;100.00
6347;BME280;3206;42.666;23.600;2023-02-27T01:58:11;94343.94;;;12.01;100.00
6347;BME280;3206;42.666;23.600;2023-02-27T02:00:38;94357.44;;;12.12;100.00
6347;BME280;3206;42.666;23.600;2023-02-27T02:03:12;94362.53;;;12.24;100.00
6347;BME280;3206;42.666;23.600;2023-02-27T02:05:41;94372.59;;;12.37;100.00
6347;BME280;3206;42.666;23.600;2023-02-27T02:08:09;94373.47;;;12.48;100.00
6347;BME280;3206;42.666;23.600;2023-02-27T02:10:39;94368.13;;;12.48;100.00
6347;BME280;3206;42.666;23.600;2023-02-27T02:13:08;94381.97;;;12.57;100.00
6347;BME280;3206;42.666;23.600;2023-02-27T02:15:39;94379.28;;;12.57;100.00
6347;BME280;3206;42.666;23.600;2023-02-27T02:18:18;94387.94;;;12.80;100.00
6347;BME280;3206;42.666;23.600;2023-02-27T02:21:41;94408.69;;;12.90;100.00
6347;BME280;3206;42.666;23.600;2023-02-27T02:24:48;94422.78;;;12.80;100.00
6347;BME280;3206;42.666;23.600;2023-02-27T02:27:31;94411.34;;;12.87;100.00
6347;BME280;3206;42.666;23.600;2023-02-27T02:30:33;94407.84;;;12.83;100.00
6347;BME280;3206;42.666;23.600;2023-02-27T02:33:39;94404.81;;;12.84;100.00
6347;BME280;3206;42.666;23.600;2023-02-27T02:36:49;94444.59;;;12.82;100.00
6347;BME280;3206;42.666;23.600;2023-02-27T02:39:33;94548.03;;;12.54;100.00
6347;BME280;3206;42.666;23.600;2023-02-27T02:42:04;94626.00;;;11.11;100.00
6347;BME280;3206;42.666;23.600;2023-02-27T02:44:40;94628.63;;;10.00;100.00
6347;BME280;3206;42.666;23.600;2023-02-27T02:47:16;94620.16;;;9.48;100.00
6347;BME280;3206;42.666;23.600;2023-02-27T02:49:54;94636.38;;;9.28;100.00
6347;BME280;3206;42.666;23.600;2023-02-27T02:52:26;94652.09;;;9.18;100.00
6347;BME280;3206;42.666;23.600;2023-02-27T02:55:05;94639.41;;;9.27;100.00
6347;BME280;3206;42.666;23.600;2023-02-27T02:57:36;94654.59;;;9.26;100.00
6347;BME280;3206;42.666;23.600;2023-02-27T03:00:08;94642.41;;;9.25;100.00
6347;BME280;3206;42.666;23.600;2023-02-27T03:02:40;94633.28;;;9.26;100.00
6347;BME280;3206;42.666;23.600;2023-02-27T03:05:12;94638.44;;;9.19;100.00
6347;BME280;3206;42.666;23.600;2023-02-27T03:07:43;94647.97;;;9.20;100.00
6347;BME280;3206;42.666;23.600;2023-02-27T03:10:15;94646.75;;;9.18;100.00
6347;BME280;3206;42.666;23.600;2023-02-27T03:12:46;94653.31;;;9.20;100.00
6347;BME280;3206;42.666;23.600;2023-02-27T03:15:17;94671.09;;;9.16;100.00
6347;BME280;3206;42.666;23.600;2023-02-27T03:17:49;94652.25;;;9.09;100.00
6347;BME280;3206;42.666;23.600;2023-02-27T03:20:20;94629.81;;;9.10;100.00
6347;BME280;3206;42.666;23.600;2023-02-27T03:22:51;94621.41;;;9.08;100.00
6347;BME280;3206;42.666;23.600;2023-02-27T03:25:22;94624.84;;;9.09;100.00
6347;BME280;3206;42.666;23.600;2023-02-27T03:27:54;94620.81;;;8.99;100.00
6347;BME280;3206;42.666;23.600;2023-02-27T03:30:27;94624.44;;;9.07;100.00
6347;BME280;3206;42.666;23.600;2023-02-27T03:33:00;94631.31;;;9.08;100.00
6347;BME280;3206;42.666;23.600;2023-02-27T03:35:36;94626.16;;;9.15;100.00
6347;BME280;3206;42.666;23.600;2023-02-27T03:38:11;94625.22;;;9.23;100.00
6347;BME280;3206;42.666;23.600;2023-02-27T03:40:50;94640.84;;;9.24;100.00
6347;BME280;3206;42.666;23.600;2023-02-27T03:43:26;94658.66;;;9.20;100.00
6347;BME280;3206;42.666;23.600;2023-02-27T03:45:59;94691.63;;;9.16;100.00
6347;BME280;3206;42.666;23.600;2023-02-27T03:48:27;94716.19;;;9.09;100.00
6347;BME280;3206;42.666;23.600;2023-02-27T03:50:54;94714.38;;;9.13;100.00
6347;BME280;3206;42.666;23.600;2023-02-27T03:53:26;94709.25;;;9.20;100.00
6347;BME280;3206;42.666;23.600;2023-02-27T03:55:57;94700.72;;;9.15;100.00
6347;BME280;3206;42.666;23.600;2023-02-27T03:58:25;94701.31;;;9.08;100.00
6347;BME280;3206;42.666;23.600;2023-02-27T04:00:52;94705.19;;;9.11;100.00
6347;BME280;3206;42.666;23.600;2023-02-27T04:03:19;94694.53;;;9.11;100.00
6347;BME280;3206;42.666;23.600;2023-02-27T04:05:46;94691.34;;;9.05;100.00
6347;BME280;3206;42.666;23.600;2023-02-27T04:08:31;94705.47;;;9.21;100.00
6347;BME280;3206;42.666;23.600;2023-02-27T04:11:19;94715.16;;;9.14;100.00
6347;BME280;3206;42.666;23.600;2023-02-27T04:14:13;94719.22;;;9.23;100.00
6347;BME280;3206;42.666;23.600;2023-02-27T04:17:03;94721.84;;;9.35;100.00
6347;BME280;3206;42.666;23.600;2023-02-27T04:22:31;94716.56;;;9.23;100.00
6347;BME280;3206;42.666;23.600;2023-02-27T04:25:09;94719.75;;;9.28;100.00
6347;BME280;3206;42.666;23.600;2023-02-27T04:27:49;94728.44;;;9.26;100.00
6347;BME280;3206;42.666;23.600;2023-02-27T04:30:24;94721.84;;;9.08;100.00
6347;BME280;3206;42.666;23.600;2023-02-27T04:33:04;94716.38;;;9.16;100.00
6347;BME280;3206;42.666;23.600;2023-02-27T04:35:37;94723.69;;;9.19;100.00
6347;BME280;3206;42.666;23.600;2023-02-27T04:38:13;94747.03;;;9.10;100.00
6347;BME280;3206;42.666;23.600;2023-02-27T04:40:44;94766.00;;;8.69;100.00
6347;BME280;3206;42.666;23.600;2023-02-27T04:43:15;94780.66;;;8.27;100.00
6347;BME280;3206;42.666;23.600;2023-02-27T04:45:43;94788.47;;;8.00;100.00
6347;BME280;3206;42.666;23.600;2023-02-27T04:48:18;94794.50;;;7.76;100.00
6347;BME280;3206;42.666;23.600;2023-02-27T04:50:50;94813.50;;;7.54;100.00
6347;BME280;3206;42.666;23.600;2023-02-27T04:53:22;94818.44;;;7.44;100.00
6347;BME280;3206;42.666;23.600;2023-02-27T04:55:52;94829.31;;;7.31;100.00
6347;BME280;3206;42.666;23.600;2023-02-27T04:58:24;94836.41;;;7.27;100.00
6347;BME280;3206;42.666;23.600;2023-02-27T05:00:56;94841.13;;;7.21;100.00
6347;BME280;3206;42.666;23.600;2023-02-27T05:03:27;94850.47;;;7.07;100.00
6347;BME280;3206;42.666;23.600;2023-02-27T05:05:58;94859.50;;;6.85;100.00
6347;BME280;3206;42.666;23.600;2023-02-27T05:08:32;94878.75;;;6.74;100.00
6347;BME280;3206;42.666;23.600;2023-02-27T05:11:05;94885.66;;;6.66;100.00
6347;BME280;3206;42.666;23.600;2023-02-27T05:13:39;94876.13;;;6.74;100.00
6347;BME280;3206;42.666;23.600;2023-02-27T05:16:10;94872.91;;;6.60;100.00
6347;BME280;3206;42.666;23.600;2023-02-27T05:18:40;94874.84;;;6.51;100.00
6347;BME280;3206;42.666;23.600;2023-02-27T05:21:15;94904.16;;;6.46;100.00
6347;BME280;3206;42.666;23.600;2023-02-27T05:23:52;94907.97;;;6.28;100.00
6347;BME280;3206;42.666;23.600;2023-02-27T05:26:27;94919.97;;;6.25;100.00
6347;BME280;3206;42.666;23.600;2023-02-27T05:29:03;94913.00;;;6.21;100.00
6347;BME280;3206;42.666;23.600;2023-02-27T05:31:35;94916.25;;;6.35;100.00
6347;BME280;3206;42.666;23.600;2023-02-27T05:34:09;94904.22;;;6.29;100.00
6347;BME280;3206;42.666;23.600;2023-02-27T05:36:41;94913.72;;;6.38;100.00
6347;BME280;3206;42.666;23.600;2023-02-27T05:39:10;94916.69;;;6.37;100.00
6347;BME280;3206;42.666;23.600;2023-02-27T05:41:42;94927.72;;;6.47;100.00
6347;BME280;3206;42.666;23.600;2023-02-27T05:44:16;94929.63;;;6.38;100.00
6347;BME280;3206;42.666;23.600;2023-02-27T05:46:50;94933.19;;;6.51;100.00
6347;BME280;3206;42.666;23.600;2023-02-27T05:49:22;94930.19;;;6.52;100.00
6347;BME280;3206;42.666;23.600;2023-02-27T05:51:52;94931.00;;;6.53;100.00
6347;BME280;3206;42.666;23.600;2023-02-27T05:54:24;94901.41;;;6.34;100.00
6347;BME280;3206;42.666;23.600;2023-02-27T05:56:56;94933.28;;;6.63;100.00
6347;BME280;3206;42.666;23.600;2023-02-27T05:59:29;94944.88;;;6.50;100.00
6347;BME280;3206;42.666;23.600;2023-02-27T06:01:59;94961.16;;;6.40;100.00
6347;BME280;3206;42.666;23.600;2023-02-27T06:04:26;94972.84;;;6.39;100.00
6347;BME280;3206;42.666;23.600;2023-02-27T06:06:53;94973.13;;;6.46;100.00
6347;BME280;3206;42.666;23.600;2023-02-27T06:09:21;94978.28;;;6.42;100.00
6347;BME280;3206;42.666;23.600;2023-02-27T06:11:48;94983.47;;;6.39;100.00
6347;BME280;3206;42.666;23.600;2023-02-27T06:14:15;94980.94;;;6.42;100.00
6347;BME280;3206;42.666;23.600;2023-02-27T06:16:42;94975.72;;;6.63;100.00
6347;BME280;3206;42.666;23.600;2023-02-27T06:19:09;94981.81;;;6.72;100.00
6347;BME280;3206;42.666;23.600;2023-02-27T06:21:36;94971.41;;;6.87;100.00
6347;BME280;3206;42.666;23.600;2023-02-27T06:24:02;94978.41;;;7.00;100.00
6347;BME280;3206;42.666;23.600;2023-02-27T06:26:29;94993.13;;;6.89;100.00
6347;BME280;3206;42.666;23.600;2023-02-27T06:28:56;94989.31;;;6.99;100.00
6347;BME280;3206;42.666;23.600;2023-02-27T06:31:22;94981.19;;;7.04;100.00
6347;BME280;3206;42.666;23.600;2023-02-27T06:33:50;94978.84;;;7.02;100.00
6347;BME280;3206;42.666;23.600;2023-02-27T06:36:17;94983.84;;;7.04;100.00
6347;BME280;3206;42.666;23.600;2023-02-27T06:38:44;94988.78;;;7.14;100.00
6347;BME280;3206;42.666;23.600;2023-02-27T06:41:10;94996.59;;;7.19;100.00
6347;BME280;3206;42.666;23.600;2023-02-27T06:43:37;95002.97;;;7.26;100.00
6347;BME280;3206;42.666;23.600;2023-02-27T06:46:04;95011.94;;;7.42;100.00
6347;BME280;3206;42.666;23.600;2023-02-27T06:48:30;95006.72;;;7.45;100.00
6347;BME280;3206;42.666;23.600;2023-02-27T06:50:59;95011.19;;;7.62;100.00
6347;BME280;3206;42.666;23.600;2023-02-27T06:53:25;95012.59;;;7.59;100.00
6347;BME280;3206;42.666;23.600;2023-02-27T06:55:52;95001.25;;;7.50;100.00
6347;BME280;3206;42.666;23.600;2023-02-27T06:58:18;95000.66;;;7.45;100.00
6347;BME280;3206;42.666;23.600;2023-02-27T07:00:45;94991.59;;;7.46;100.00
6347;BME280;3206;42.666;23.600;2023-02-27T07:03:12;94995.94;;;7.71;100.00
6347;BME280;3206;42.666;23.600;2023-02-27T07:05:39;94989.78;;;7.58;100.00
6347;BME280;3206;42.666;23.600;2023-02-27T07:08:08;95001.84;;;7.76;100.00
6347;BME280;3206;42.666;23.600;2023-02-27T07:10:35;95000.94;;;7.72;100.00
6347;BME280;3206;42.666;23.600;2023-02-27T07:13:03;94994.41;;;7.90;100.00
6347;BME280;3206;42.666;23.600;2023-02-27T07:15:30;94994.97;;;8.16;100.00
6347;BME280;3206;42.666;23.600;2023-02-27T07:17:56;95010.53;;;8.26;100.00
6347;BME280;3206;42.666;23.600;2023-02-27T07:20:23;95005.22;;;8.26;100.00
6347;BME280;3206;42.666;23.600;2023-02-27T07:22:50;95020.97;;;8.31;100.00
6347;BME280;3206;42.666;23.600;2023-02-27T07:25:18;95019.03;;;8.40;100.00
6347;BME280;3206;42.666;23.600;2023-02-27T07:27:44;95032.69;;;8.18;100.00
6347;BME280;3206;42.666;23.600;2023-02-27T07:30:14;95032.47;;;8.23;100.00
6347;BME280;3206;42.666;23.600;2023-02-27T07:32:40;95035.00;;;8.40;100.00
6347;BME280;3206;42.666;23.600;2023-02-27T07:35:08;95043.03;;;8.64;100.00
6347;BME280;3206;42.666;23.600;2023-02-27T07:37:34;95040.09;;;8.45;100.00
6347;BME280;3206;42.666;23.600;2023-02-27T07:40:01;95050.50;;;8.38;100.00
6347;BME280;3206;42.666;23.600;2023-02-27T07:42:33;95042.25;;;8.31;100.00
6347;BME280;3206;42.666;23.600;2023-02-27T07:45:00;95047.91;;;8.50;100.00
6347;BME280;3206;42.666;23.600;2023-02-27T07:47:27;95047.75;;;8.67;100.00
6347;BME280;3206;42.666;23.600;2023-02-27T07:49:54;95052.41;;;8.70;100.00
6347;BME280;3206;42.666;23.600;2023-02-27T07:52:21;95050.28;;;9.20;100.00
6347;BME280;3206;42.666;23.600;2023-02-27T07:54:47;95054.72;;;9.76;100.00
6347;BME280;3206;42.666;23.600;2023-02-27T07:57:14;95060.41;;;9.74;100.00
6347;BME280;3206;42.666;23.600;2023-02-27T07:59:42;95065.84;;;9.42;100.00
6347;BME280;3206;42.666;23.600;2023-02-27T08:02:09;95056.63;;;9.27;100.00
6347;BME280;3206;42.666;23.600;2023-02-27T08:04:37;95073.16;;;9.21;100.00
6347;BME280;3206;42.666;23.600;2023-02-27T08:07:03;95069.13;;;9.03;100.00
6347;BME280;3206;42.666;23.600;2023-02-27T08:09:30;95079.56;;;9.08;100.00
6347;BME280;3206;42.666;23.600;2023-02-27T08:11:57;95078.69;;;9.04;100.00
6347;BME280;3206;42.666;23.600;2023-02-27T08:14:24;95079.75;;;8.91;100.00
6347;BME280;3206;42.666;23.600;2023-02-27T08:16:52;95073.56;;;9.11;100.00
6347;BME280;3206;42.666;23.600;2023-02-27T08:19:18;95059.50;;;9.11;100.00
6347;BME280;3206;42.666;23.600;2023-02-27T08:21:45;95054.16;;;9.11;100.00
6347;BME280;3206;42.666;23.600;2023-02-27T08:24:12;95051.16;;;9.24;100.00
6347;BME280;3206;42.666;23.600;2023-02-27T08:26:38;95050.75;;;9.34;100.00
6347;BME280;3206;42.666;23.600;2023-02-27T08:29:05;95048.97;;;9.38;100.00
6347;BME280;3206;42.666;23.600;2023-02-27T08:31:32;95061.38;;;9.22;100.00
6347;BME280;3206;42.666;23.600;2023-02-27T08:34:00;95060.53;;;9.54;100.00
6347;BME280;3206;42.666;23.600;2023-02-27T08:36:27;95073.16;;;9.45;100.00
6347;BME280;3206;42.666;23.600;2023-02-27T08:38:53;95068.72;;;9.73;100.00
6347;BME280;3206;42.666;23.600;2023-02-27T08:41:20;95068.16;;;9.79;100.00
6347;BME280;3206;42.666;23.600;2023-02-27T08:43:47;95074.28;;;10.04;100.00
6347;BME280;3206;42.666;23.600;2023-02-27T08:46:14;95085.06;;;9.83;100.00
6347;BME280;3206;42.666;23.600;2023-02-27T08:48:41;95086.94;;;10.07;100.00
6347;BME280;3206;42.666;23.600;2023-02-27T08:51:09;95089.63;;;10.07;100.00
6347;BME280;3206;42.666;23.600;2023-02-27T08:53:36;95085.81;;;10.20;100.00
6347;BME280;3206;42.666;23.600;2023-02-27T08:56:02;95091.78;;;10.29;100.00
6347;BME280;3206;42.666;23.600;2023-02-27T08:58:29;95096.69;;;10.27;100.00
6347;BME280;3206;42.666;23.600;2023-02-27T09:00:56;95094.84;;;10.55;100.00
6347;BME280;3206;42.666;23.600;2023-02-27T09:03:22;95115.06;;;10.28;100.00
6347;BME280;3206;42.666;23.600;2023-02-27T09:05:53;95097.50;;;10.55;100.00
6347;BME280;3206;42.666;23.600;2023-02-27T09:08:22;95101.75;;;10.56;100.00
6347;BME280;3206;42.666;23.600;2023-02-27T09:10:48;95105.59;;;10.31;100.00
6347;BME280;3206;42.666;23.600;2023-02-27T09:13:15;95112.75;;;9.67;100.00
6347;BME280;3206;42.666;23.600;2023-02-27T09:15:42;95109.72;;;10.68;100.00
6347;BME280;3206;42.666;23.600;2023-02-27T09:18:08;95088.63;;;11.06;100.00
6347;BME280;3206;42.666;23.600;2023-02-27T09:20:35;95108.53;;;11.66;100.00
6347;BME280;3206;42.666;23.600;2023-02-27T09:23:02;95115.06;;;11.53;100.00
6347;BME280;3206;42.666;23.600;2023-02-27T09:25:31;95107.31;;;11.95;100.00
6347;BME280;3206;42.666;23.600;2023-02-27T09:27:58;95111.78;;;12.06;100.00
6347;BME280;3206;42.666;23.600;2023-02-27T09:30:24;95117.25;;;12.63;100.00
6347;BME280;3206;42.666;23.600;2023-02-27T09:32:51;95126.56;;;13.07;100.00
6347;BME280;3206;42.666;23.600;2023-02-27T09:35:18;95107.88;;;13.52;100.00
6347;BME280;3206;42.666;23.600;2023-02-27T09:37:45;95131.59;;;12.36;100.00
6347;BME280;3206;42.666;23.600;2023-02-27T09:40:18;95134.03;;;12.60;100.00
6347;BME280;3206;42.666;23.600;2023-02-27T09:42:47;95131.13;;;13.67;100.00
6347;BME280;3206;42.666;23.600;2023-02-27T09:45:20;95134.63;;;14.68;100.00
6347;BME280;3206;42.666;23.600;2023-02-27T09:47:50;95134.00;;;14.00;100.00
6347;BME280;3206;42.666;23.600;2023-02-27T09:50:29;95149.72;;;14.24;100.00
6347;BME280;3206;42.666;23.600;2023-02-27T09:52:57;95144.81;;;14.26;100.00
6347;BME280;3206;42.666;23.600;2023-02-27T09:55:29;95140.16;;;16.24;100.00
6347;BME280;3206;42.666;23.600;2023-02-27T09:58:03;95137.50;;;15.44;100.00
6347;BME280;3206;42.666;23.600;2023-02-27T10:00:44;95133.75;;;15.52;100.00
6347;BME280;3206;42.666;23.600;2023-02-27T10:03:22;95137.09;;;15.09;100.00
6347;BME280;3206;42.666;23.600;2023-02-27T10:06:05;95129.00;;;15.78;100.00
6347;BME280;3206;42.666;23.600;2023-02-27T10:08:38;95130.63;;;15.86;100.00
6347;BME280;3206;42.666;23.600;2023-02-27T10:11:09;95140.97;;;17.95;90.00
6347;BME280;3206;42.666;23.600;2023-02-27T10:13:51;95142.88;;;18.68;80.27
6347;BME280;3206;42.666;23.600;2023-02-27T10:16:22;95143.06;;;19.46;74.70
6347;BME280;3206;42.666;23.600;2023-02-27T10:18:54;95145.63;;;19.74;71.02
6347;BME280;3206;42.666;23.600;2023-02-27T10:21:27;95147.84;;;19.90;72.66
6347;BME280;3206;42.666;23.600;2023-02-27T10:23:59;95145.16;;;19.86;69.80
6347;BME280;3206;42.666;23.600;2023-02-27T10:26:29;95142.72;;;19.34;70.10
6347;BME280;3206;42.666;23.600;2023-02-27T10:29:04;95141.34;;;18.67;72.95
6347;BME280;3206;42.666;23.600;2023-02-27T10:31:37;95141.72;;;17.78;74.09
6347;BME280;3206;42.666;23.600;2023-02-27T10:34:05;95141.22;;;16.59;78.63
6347;BME280;3206;42.666;23.600;2023-02-27T10:36:34;95149.75;;;15.38;85.75
6347;BME280;3206;42.666;23.600;2023-02-27T10:39:04;95134.88;;;14.85;100.00
6347;BME280;3206;42.666;23.600;2023-02-27T10:41:33;95139.19;;;15.59;100.00
6347;BME280;3206;42.666;23.600;2023-02-27T10:44:03;95130.06;;;15.70;100.00
6347;BME280;3206;42.666;23.600;2023-02-27T10:46:31;95125.41;;;16.07;100.00
6347;BME280;3206;42.666;23.600;2023-02-27T10:49:00;95120.88;;;16.15;100.00
6347;BME280;3206;42.666;23.600;2023-02-27T10:51:31;95113.09;;;16.06;100.00
6347;BME280;3206;42.666;23.600;2023-02-27T10:54:20;95123.94;;;16.71;95.41
6347;BME280;3206;42.666;23.600;2023-02-27T10:56:49;95094.00;;;16.25;96.82
6347;BME280;3206;42.666;23.600;2023-02-27T10:59:22;95105.84;;;15.70;98.49
6347;BME280;3206;42.666;23.600;2023-02-27T11:01:51;95104.81;;;15.82;100.00
6347;BME280;3206;42.666;23.600;2023-02-27T11:04:28;95107.59;;;15.92;100.00
6347;BME280;3206;42.666;23.600;2023-02-27T11:06:57;95095.78;;;15.60;100.00
6347;BME280;3206;42.666;23.600;2023-02-27T11:09:26;95104.56;;;15.54;100.00
6347;BME280;3206;42.666;23.600;2023-02-27T11:11:54;95105.34;;;15.58;100.00
6347;BME280;3206;42.666;23.600;2023-02-27T11:14:30;95096.50;;;15.21;100.00
6347;BME280;3206;42.666;23.600;2023-02-27T11:16:58;95093.06;;;15.24;100.00
6347;BME280;3206;42.666;23.600;2023-02-27T11:19:31;95097.63;;;14.87;100.00
6347;BME280;3206;42.666;23.600;2023-02-27T11:22:06;95092.22;;;15.16;100.00
6347;BME280;3206;42.666;23.600;2023-02-27T11:24:33;95086.66;;;15.35;100.00
6347;BME280;3206;42.666;23.600;2023-02-27T11:27:01;95076.84;;;15.53;100.00
6347;BME280;3206;42.666;23.600;2023-02-27T11:29:33;95075.28;;;15.92;100.00
6347;BME280;3206;42.666;23.600;2023-02-27T11:32:02;95076.13;;;16.07;100.00
6347;BME280;3206;42.666;23.600;2023-02-27T11:34:31;95071.09;;;18.11;86.97
6347;BME280;3206;42.666;23.600;2023-02-27T11:37:03;95070.28;;;18.56;82.40
6347;BME280;3206;42.666;23.600;2023-02-27T11:39:34;95066.34;;;18.78;82.02
6347;BME280;3206;42.666;23.600;2023-02-27T11:42:11;95067.91;;;18.61;78.22
6347;BME280;3206;42.666;23.600;2023-02-27T11:44:49;95064.91;;;18.17;79.09
6347;BME280;3206;42.666;23.600;2023-02-27T11:47:22;95054.84;;;17.48;81.77
6347;BME280;3206;42.666;23.600;2023-02-27T11:50:19;95069.88;;;17.42;82.63
6347;BME280;3206;42.666;23.600;2023-02-27T11:52:59;95070.53;;;16.29;93.69
6347;BME280;3206;42.666;23.600;2023-02-27T11:55:30;95070.53;;;16.29;98.51
6347;BME280;3206;42.666;23.600;2023-02-27T11:58:08;95075.06;;;16.18;100.00
6347;BME280;3206;42.666;23.600;2023-02-27T12:00:42;95070.75;;;15.23;100.00
6347;BME280;3206;42.666;23.600;2023-02-27T12:03:17;95073.38;;;14.51;100.00
6347;BME280;3206;42.666;23.600;2023-02-27T12:05:49;95082.72;;;14.08;100.00
6347;BME280;3206;42.666;23.600;2023-02-27T12:08:18;95077.28;;;14.05;100.00
6347;BME280;3206;42.666;23.600;2023-02-27T12:10:49;95070.63;;;13.95;100.00
6347;BME280;3206;42.666;23.600;2023-02-27T12:13:19;95078.41;;;13.78;100.00
6347;BME280;3206;42.666;23.600;2023-02-27T12:15:53;95074.59;;;13.34;100.00
6347;BME280;3206;42.666;23.600;2023-02-27T12:18:26;95081.03;;;13.29;100.00
6347;BME280;3206;42.666;23.600;2023-02-27T12:20:58;95080.72;;;12.93;100.00
6347;BME280;3206;42.666;23.600;2023-02-27T12:23:32;95075.06;;;13.17;100.00
6347;BME280;3206;42.666;23.600;2023-02-27T12:26:04;95073.59;;;12.82;100.00
6347;BME280;3206;42.666;23.600;2023-02-27T12:28:44;95073.50;;;13.16;100.00
6347;BME280;3206;42.666;23.600;2023-02-27T12:34:17;95066.72;;;13.22;100.00
6347;BME280;3206;42.666;23.600;2023-02-27T12:36:47;95066.38;;;13.23;100.00
6347;BME280;3206;42.666;23.600;2023-02-27T12:39:17;95064.69;;;13.38;100.00
6347;BME280;3206;42.666;23.600;2023-02-27T12:42:09;95059.09;;;13.24;100.00
6347;BME280;3206;42.666;23.600;2023-02-27T12:44:54;95059.34;;;13.38;100.00
6347;BME280;3206;42.666;23.600;2023-02-27T12:47:31;95062.56;;;13.47;100.00
6347;BME280;3206;42.666;23.600;2023-02-27T12:50:08;95060.31;;;13.49;100.00
6347;BME280;3206;42.666;23.600;2023-02-27T12:52:43;95059.81;;;13.43;100.00
6347;BME280;3206;42.666;23.600;2023-02-27T12:55:14;95067.13;;;13.24;100.00
6347;BME280;3206;42.666;23.600;2023-02-27T12:58:02;95077.38;;;12.96;100.00
6347;BME280;3206;42.666;23.600;2023-02-27T13:00:38;95081.13;;;12.76;100.00
6347;BME280;3206;42.666;23.600;2023-02-27T13:03:12;95075.78;;;12.76;100.00
6347;BME280;3206;42.666;23.600;2023-02-27T13:05:43;95069.00;;;12.82;100.00
6347;BME280;3206;42.666;23.600;2023-02-27T13:08:36;95058.19;;;12.94;100.00
6347;BME280;3206;42.666;23.600;2023-02-27T13:11:14;95063.44;;;13.10;100.00
6347;BME280;3206;42.666;23.600;2023-02-27T13:13:48;95058.50;;;13.12;100.00
6347;BME280;3206;42.666;23.600;2023-02-27T13:16:20;95063.94;;;13.15;100.00
6347;BME280;3206;42.666;23.600;2023-02-27T13:18:53;95070.56;;;13.02;100.00
6347;BME280;3206;42.666;23.600;2023-02-27T13:21:26;95070.16;;;13.00;100.00
6347;BME280;3206;42.666;23.600;2023-02-27T13:24:21;95074.50;;;12.89;100.00
6347;BME280;3206;42.666;23.600;2023-02-27T13:26:53;95074.25;;;12.94;100.00
6347;BME280;3206;42.666;23.600;2023-02-27T13:29:23;95061.28;;;12.96;100.00
6347;BME280;3206;42.666;23.600;2023-02-27T13:31:54;95059.28;;;12.93;100.00